Аэропорт
Чжоушуйцзы (ZYTL)

 ZYTL / DLC

China
CN-21
Чжоушуйцзы
 38.96570, 121.53900  / 107 ft

 ZYTL 182230Z 27001MPS CAVOK 18/16 Q1015 NOSIG
 TAF ZYTL 181509Z 1818/1918 30004MPS 5000 BR FEW033 TX26/1906Z TN17/1820Z BECMG 1914/1915 06004MPS

2020 © VATRUS division (Privacy Policy)